Time;durP1;ratioP1;P1;durP2;ratioP2;P2;SDS_P1;SDS_P2;PMS_P1;PMS_P2;Temp;Humidity;BMP_temperature;BMP_pressure;BME280_temperature;BME280_humidity;BME280_pressure;Samples;Min_cycle;Max_cycle;Signal;HPM_P1;HPM_P2
2021/04/26 00:01:36;;;;;;;2.83;1.48;;;7.50;90.30;;;;;;5012314;28;20395;-67
2021/04/26 00:04:03;;;;;;;4.38;1.60;;;7.50;90.30;;;;;;5012378;28;20030;-66
2021/04/26 00:06:28;;;;;;;3.78;1.58;;;7.70;90.30;;;;;;5012376;28;20382;-67
2021/04/26 00:08:54;;;;;;;3.63;1.90;;;7.60;90.70;;;;;;5011313;28;20553;-67
2021/04/26 00:11:21;;;;;;;4.63;1.80;;;7.60;90.90;;;;;;5012375;28;20161;-66
2021/04/26 00:13:47;;;;;;;6.82;1.40;;;7.50;91.30;;;;;;5011067;28;20041;-66
2021/04/26 00:16:12;;;;;;;4.40;2.30;;;7.60;91.10;;;;;;5012203;28;20026;-66
2021/04/26 00:18:38;;;;;;;7.53;1.70;;;7.60;91.40;;;;;;5012448;28;20033;-66
2021/04/26 00:21:04;;;;;;;4.18;1.63;;;7.50;91.70;;;;;;5027792;28;20052;-66
2021/04/26 00:23:30;;;;;;;5.65;2.08;;;7.50;92.30;;;;;;5051803;28;20370;-66
2021/04/26 00:25:56;;;;;;;6.97;1.38;;;7.40;92.60;;;;;;5051731;28;20044;-66
2021/04/26 00:28:21;;;;;;;4.40;1.48;;;7.30;92.80;;;;;;5052866;28;20370;-66
2021/04/26 00:30:47;;;;;;;3.50;1.52;;;7.40;93.10;;;;;;5055426;28;20033;-67
2021/04/26 00:33:13;;;;;;;4.53;2.00;;;7.30;93.50;;;;;;5055842;28;20032;-66
2021/04/26 00:35:39;;;;;;;7.55;1.42;;;7.30;93.30;;;;;;5055539;28;20029;-66
2021/04/26 00:38:04;;;;;;;4.38;1.70;;;7.40;93.60;;;;;;5053228;28;20111;-66
2021/04/26 00:40:30;;;;;;;3.30;1.50;;;7.30;93.50;;;;;;5055374;28;20040;-66
2021/04/26 00:42:56;;;;;;;4.18;1.88;;;7.20;94.20;;;;;;5055663;28;20029;-66
2021/04/26 00:45:25;;;;;;;3.65;1.60;;;7.20;94.20;;;;;;5037615;28;20029;-66
2021/04/26 00:47:52;;;;;;;4.10;1.40;;;7.20;94.30;;;;;;5055394;28;20037;-67
2021/04/26 00:50:27;;;;;;;7.13;2.08;;;7.30;94.30;;;;;;5050585;28;20069;-66
2021/04/26 00:52:54;;;;;;;5.80;1.92;;;7.10;94.50;;;;;;5035344;28;20037;-68
2021/04/26 00:55:24;;;;;;;9.63;1.83;;;7.20;94.80;;;;;;5035548;28;20030;-66
2021/04/26 00:57:49;;;;;;;7.65;2.08;;;7.20;94.60;;;;;;5017998;28;20068;-66
2021/04/26 01:00:17;;;;;;;5.45;2.00;;;7.30;94.30;;;;;;5035415;28;20060;-66
2021/04/26 01:02:43;;;;;;;3.60;1.70;;;7.20;94.70;;;;;;5035248;28;20039;-67
2021/04/26 01:05:13;;;;;;;4.40;1.98;;;7.10;95.20;;;;;;5035285;28;20039;-66
2021/04/26 01:07:40;;;;;;;6.72;1.92;;;7.00;95.30;;;;;;5034873;28;20088;-67
2021/04/26 01:10:11;;;;;;;4.43;2.05;;;7.00;95.20;;;;;;5017451;28;20116;-67
2021/04/26 01:13:03;;;;;;;3.80;1.63;;;6.90;95.60;;;;;;5017365;28;20121;-67
2021/04/26 01:16:13;;;;;;;7.93;1.75;;;6.90;95.50;;;;;;5035200;28;20141;-67
2021/04/26 01:19:22;;;;;;;6.93;2.10;;;7.00;95.40;;;;;;5034539;28;20444;-66
2021/04/26 01:22:34;;;;;;;8.20;1.67;;;6.90;95.50;;;;;;4998501;28;20099;-66
2021/04/26 01:25:20;;;;;;;4.70;1.67;;;7.00;95.20;;;;;;5017052;28;20059;-66
2021/04/26 01:27:46;;;;;;;7.97;1.70;;;7.20;94.70;;;;;;5033363;28;20037;-66
2021/04/26 01:30:59;;;;;;;3.97;1.80;;;7.10;94.70;;;;;;5034517;28;20083;-67
2021/04/26 01:33:30;;;;;;;7.05;1.73;;;7.20;94.70;;;;;;5016292;28;20051;-66
2021/04/26 01:36:04;;;;;;;6.30;1.70;;;7.10;94.80;;;;;;5033451;28;20421;-66
2021/04/26 01:38:37;;;;;;;4.75;1.85;;;7.00;95.00;;;;;;5032139;28;20040;-65
2021/04/26 01:41:05;;;;;;;5.30;1.55;;;7.00;95.20;;;;;;5013886;28;20034;-66
2021/04/26 01:43:31;;;;;;;9.30;2.33;;;6.90;95.10;;;;;;5013275;28;20034;-66
2021/04/26 01:46:01;;;;;;;3.22;1.52;;;6.90;95.30;;;;;;5013546;28;20034;-65
2021/04/26 01:48:32;;;;;;;9.40;2.78;;;6.80;95.40;;;;;;5013281;28;20030;-65
2021/04/26 01:51:00;;;;;;;5.05;1.58;;;6.60;96.10;;;;;;5013135;28;20464;-66
2021/04/26 01:53:28;;;;;;;6.78;2.10;;;6.70;96.10;;;;;;5013369;28;20442;-66
2021/04/26 01:55:59;;;;;;;4.57;2.03;;;6.70;96.00;;;;;;5013482;28;20030;-66
2021/04/26 01:58:28;;;;;;;4.65;2.30;;;6.70;96.20;;;;;;5014382;28;20041;-65
2021/04/26 02:00:55;;;;;;;5.10;2.25;;;6.70;96.40;;;;;;5013053;28;20025;-65
2021/04/26 02:03:22;;;;;;;6.97;2.40;;;6.60;96.60;;;;;;5014203;28;20036;-65
2021/04/26 02:05:53;;;;;;;6.85;2.10;;;6.60;96.80;;;;;;5013181;28;20068;-66
2021/04/26 02:08:19;;;;;;;7.18;2.10;;;6.50;97.10;;;;;;5013382;28;20026;-66
2021/04/26 02:10:48;;;;;;;5.47;2.05;;;6.30;97.70;;;;;;5014171;28;20026;-66
2021/04/26 02:13:21;;;;;;;8.43;2.22;;;6.20;98.20;;;;;;5014044;28;20383;-65
2021/04/26 02:15:51;;;;;;;16.20;3.03;;;6.20;98.40;;;;;;5013032;28;20026;-65
2021/04/26 02:18:17;;;;;;;3.90;2.10;;;6.20;98.40;;;;;;4996507;28;20022;-66
2021/04/26 02:20:43;;;;;;;8.18;2.10;;;6.10;98.60;;;;;;5013844;28;20043;-66
2021/04/26 02:23:11;;;;;;;4.45;1.80;;;6.10;98.60;;;;;;5014202;28;20034;-66
2021/04/26 02:25:38;;;;;;;7.65;2.72;;;6.20;98.80;;;;;;5014118;28;20030;-66
2021/04/26 02:28:04;;;;;;;7.03;2.10;;;6.30;98.20;;;;;;5013854;28;20120;-66
2021/04/26 02:30:30;;;;;;;5.32;1.98;;;6.30;98.00;;;;;;5014073;28;20109;-66
2021/04/26 02:33:20;;;;;;;5.78;2.78;;;6.40;97.70;;;;;;5013752;28;20025;-66
2021/04/26 02:36:00;;;;;;;5.80;1.98;;;6.40;97.40;;;;;;5013637;28;20037;-66
2021/04/26 02:38:31;;;;;;;6.18;2.03;;;6.40;97.30;;;;;;5012528;28;20144;-66
2021/04/26 02:41:07;;;;;;;4.68;1.80;;;6.40;97.30;;;;;;5012644;28;20029;-65
2021/04/26 02:43:43;;;;;;;4.45;2.20;;;6.40;97.10;;;;;;5013613;28;20038;-65
2021/04/26 02:46:11;;;;;;;5.32;1.85;;;6.50;97.00;;;;;;5012610;28;20088;-66
2021/04/26 02:48:42;;;;;;;6.93;1.90;;;6.50;96.80;;;;;;5013688;28;20026;-66
2021/04/26 02:51:08;;;;;;;8.23;1.85;;;6.40;97.00;;;;;;5013074;28;20076;-66
2021/04/26 02:53:35;;;;;;;8.10;2.72;;;6.50;96.90;;;;;;5012265;28;20041;-66
2021/04/26 02:56:08;;;;;;;7.05;2.00;;;6.40;97.00;;;;;;5012317;28;20089;-67
2021/04/26 02:58:36;;;;;;;5.60;2.20;;;6.30;97.20;;;;;;5013419;28;20069;-66
2021/04/26 03:01:07;;;;;;;5.25;1.73;;;6.30;97.30;;;;;;5012206;28;20092;-66
2021/04/26 03:03:36;;;;;;;4.10;2.00;;;6.30;97.30;;;;;;5012222;28;20360;-67
2021/04/26 03:06:02;;;;;;;7.03;1.92;;;6.20;97.30;;;;;;5012114;28;20329;-67
2021/04/26 03:08:30;;;;;;;8.05;2.10;;;6.20;97.30;;;;;;5011951;28;20079;-67
2021/04/26 03:10:58;;;;;;;8.77;1.80;;;6.10;97.70;;;;;;5013139;28;20034;-67
2021/04/26 03:13:30;;;;;;;3.45;1.88;;;6.10;97.60;;;;;;5013252;28;20505;-67
2021/04/26 03:15:57;;;;;;;4.60;2.15;;;6.00;97.90;;;;;;5011481;28;20133;-67
2021/04/26 03:18:24;;;;;;;3.55;2.15;;;6.00;97.70;;;;;;5012977;28;20101;-66
2021/04/26 03:20:50;;;;;;;6.20;2.08;;;5.90;97.90;;;;;;5011260;28;20499;-66
2021/04/26 03:23:21;;;;;;;5.63;2.45;;;5.70;98.30;;;;;;5011954;28;20038;-66
2021/04/26 03:25:47;;;;;;;6.75;2.53;;;5.70;98.60;;;;;;5013022;28;20032;-67
2021/04/26 03:28:16;;;;;;;5.88;1.98;;;5.70;98.80;;;;;;5011881;28;20026;-67
2021/04/26 03:30:43;;;;;;;6.72;2.20;;;5.50;98.90;;;;;;5012835;28;20022;-67
2021/04/26 03:33:11;;;;;;;8.18;2.75;;;5.50;99.20;;;;;;5011767;28;20033;-67
2021/04/26 03:35:37;;;;;;;6.63;2.15;;;5.30;99.70;;;;;;5011644;28;20029;-67
2021/04/26 03:38:04;;;;;;;12.05;2.42;;;5.20;99.90;;;;;;5012773;28;20056;-67
2021/04/26 03:40:29;;;;;;;4.65;1.90;;;5.20;99.90;;;;;;5011656;28;20071;-67
2021/04/26 03:43:00;;;;;;;5.13;2.13;;;5.20;99.90;;;;;;5012676;28;20022;-66
2021/04/26 03:45:27;;;;;;;4.72;2.47;;;5.10;99.90;;;;;;5012831;28;20038;-66
2021/04/26 03:47:55;;;;;;;8.40;2.60;;;5.00;99.90;;;;;;5012382;28;20156;-66
2021/04/26 03:50:24;;;;;;;3.47;2.00;;;5.00;99.90;;;;;;5012617;28;20041;-67
2021/04/26 03:52:51;;;;;;;6.03;2.08;;;4.90;99.90;;;;;;5012410;28;20033;-67
2021/04/26 03:55:23;;;;;;;12.77;2.45;;;4.90;99.90;;;;;;5012559;28;20037;-67
2021/04/26 03:57:50;;;;;;;3.83;2.25;;;4.80;99.90;;;;;;5012521;28;20030;-71
2021/04/26 04:00:19;;;;;;;7.35;2.50;;;4.30;99.90;;;;;;5027792;28;20037;-69
2021/04/26 04:02:48;;;;;;;7.32;2.85;;;4.30;99.90;;;;;;5032010;28;20600;-68
2021/04/26 04:05:16;;;;;;;6.22;2.55;;;4.30;99.90;;;;;;5035774;28;20048;-67
2021/04/26 04:07:41;;;;;;;5.00;2.42;;;4.40;99.90;;;;;;5038147;28;20517;-68
2021/04/26 04:10:11;;;;;;;6.25;2.45;;;4.30;99.90;;;;;;5035604;28;20037;-67
2021/04/26 04:12:40;;;;;;;6.90;3.00;;;4.30;99.90;;;;;;5035681;28;20037;-69
2021/04/26 04:15:09;;;;;;;8.35;2.70;;;4.30;99.90;;;;;;5035415;28;20034;-67
2021/04/26 04:17:38;;;;;;;6.35;2.53;;;4.20;99.90;;;;;;5036137;28;20064;-67
2021/04/26 04:20:08;;;;;;;7.55;2.83;;;4.10;99.90;;;;;;5035888;28;20033;-66
2021/04/26 04:22:34;;;;;;;5.03;2.85;;;4.20;99.90;;;;;;5017028;28;20057;-66
2021/04/26 04:25:01;;;;;;;8.95;2.60;;;4.20;99.90;;;;;;5014816;28;20087;-66
2021/04/26 04:27:27;;;;;;;6.72;2.65;;;4.10;99.90;;;;;;5016064;28;20034;-68
2021/04/26 04:29:52;;;;;;;7.28;2.42;;;4.00;99.90;;;;;;5015651;28;20040;-68
2021/04/26 04:32:18;;;;;;;8.85;2.58;;;4.00;99.90;;;;;;5016095;28;20038;-68
2021/04/26 04:34:44;;;;;;;6.28;3.22;;;4.00;99.90;;;;;;5016043;28;20108;-68
2021/04/26 04:37:09;;;;;;;10.75;2.58;;;3.90;99.90;;;;;;5015955;28;20040;-68
2021/04/26 04:39:35;;;;;;;9.38;2.40;;;3.90;99.90;;;;;;5016110;28;20041;-69
2021/04/26 04:42:01;;;;;;;13.70;3.08;;;3.90;99.90;;;;;;5015652;28;20045;-67
2021/04/26 04:44:29;;;;;;;12.80;3.15;;;3.90;99.90;;;;;;4998523;28;20030;-67
2021/04/26 04:46:55;;;;;;;9.07;3.35;;;3.90;99.90;;;;;;5015636;28;20037;-68
2021/04/26 04:49:21;;;;;;;9.40;2.80;;;4.00;99.90;;;;;;5016063;28;20053;-70
2021/04/26 04:51:47;;;;;;;10.70;3.47;;;4.00;99.90;;;;;;5015411;28;20042;-70
2021/04/26 04:54:13;;;;;;;9.68;2.90;;;4.10;99.90;;;;;;5015669;28;20026;-70
2021/04/26 04:56:39;;;;;;;11.27;3.22;;;4.10;99.90;;;;;;5015639;28;20033;-70
2021/04/26 04:59:06;;;;;;;11.32;4.28;;;4.10;99.90;;;;;;5015362;28;20033;-69
2021/04/26 05:01:33;;;;;;;9.05;2.97;;;4.00;99.90;;;;;;5015637;28;20044;-69
2021/04/26 05:03:59;;;;;;;7.55;2.78;;;4.10;99.90;;;;;;4998051;28;20033;-69
2021/04/26 05:06:25;;;;;;;12.48;2.72;;;4.00;99.90;;;;;;5015542;28;20045;-70
2021/04/26 05:08:52;;;;;;;18.17;3.38;;;4.10;99.90;;;;;;5006891;28;20042;-69
2021/04/26 05:11:18;;;;;;;6.10;2.30;;;4.30;99.90;;;;;;4994600;28;20050;-70
2021/04/26 05:13:47;;;;;;;7.80;2.65;;;4.40;99.90;;;;;;4995770;28;20045;-69
2021/04/26 05:16:12;;;;;;;9.57;3.35;;;4.60;99.90;;;;;;4994931;28;20502;-70
2021/04/26 05:18:39;;;;;;;8.75;3.08;;;4.70;99.90;;;;;;4995639;28;20030;-70
2021/04/26 05:21:05;;;;;;;9.50;2.75;;;4.70;99.90;;;;;;5001459;28;20049;-71
2021/04/26 05:23:31;;;;;;;12.15;3.25;;;4.80;99.90;;;;;;5014045;28;20360;-71
2021/04/26 05:25:57;;;;;;;8.90;3.10;;;4.90;99.90;;;;;;5014587;28;20614;-70
2021/04/26 05:28:23;;;;;;;11.77;3.20;;;5.00;99.90;;;;;;5014028;28;20026;-70
2021/04/26 05:30:49;;;;;;;8.90;3.25;;;5.00;99.90;;;;;;5014869;28;20041;-70
2021/04/26 05:33:17;;;;;;;9.38;3.00;;;5.10;99.90;;;;;;5014558;28;20038;-70
2021/04/26 05:35:43;;;;;;;9.30;3.33;;;5.10;99.90;;;;;;5014877;28;20034;-70
2021/04/26 05:38:16;;;;;;;11.27;3.60;;;5.10;99.90;;;;;;5014817;28;20386;-70
2021/04/26 05:40:45;;;;;;;10.73;4.10;;;5.20;99.90;;;;;;5013632;28;20037;-71
2021/04/26 05:43:11;;;;;;;13.20;3.22;;;5.30;99.90;;;;;;5014306;28;20122;-71
2021/04/26 05:45:36;;;;;;;6.55;3.13;;;5.40;99.90;;;;;;5014390;28;20450;-70
2021/04/26 05:48:03;;;;;;;8.32;2.97;;;5.60;99.90;;;;;;5014337;28;20083;-71
2021/04/26 05:50:28;;;;;;;6.45;2.85;;;5.70;99.90;;;;;;5014543;28;20033;-71
2021/04/26 05:52:55;;;;;;;19.70;3.75;;;5.80;99.90;;;;;;5014038;28;20429;-71
2021/04/26 05:55:22;;;;;;;16.17;3.15;;;5.90;99.90;;;;;;5014244;28;20084;-70
2021/04/26 05:57:48;;;;;;;9.57;2.72;;;6.00;99.90;;;;;;5014126;28;20057;-70
2021/04/26 06:00:14;;;;;;;13.77;3.05;;;6.20;99.90;;;;;;5013823;28;20038;-71
2021/04/26 06:02:40;;;;;;;10.48;3.35;;;6.30;99.70;;;;;;5013904;28;20502;-70
2021/04/26 06:05:07;;;;;;;11.75;3.28;;;6.40;99.60;;;;;;5013998;28;20065;-71
2021/04/26 06:07:32;;;;;;;37.72;4.22;;;6.40;99.10;;;;;;5013797;28;20030;-67
2021/04/26 06:09:58;;;;;;;14.80;3.00;;;6.60;98.80;;;;;;5013745;28;20041;-69
2021/04/26 06:12:24;;;;;;;15.15;3.45;;;6.70;98.40;;;;;;5013735;28;20033;-70
2021/04/26 06:14:49;;;;;;;18.40;3.42;;;6.80;98.20;;;;;;5014062;28;20061;-70
2021/04/26 06:17:15;;;;;;;38.35;13.38;;;6.90;98.20;;;;;;5013905;28;20124;-70
2021/04/26 06:19:41;;;;;;;10.73;3.88;;;7.00;97.70;;;;;;5013696;28;20038;-69
2021/04/26 06:22:07;;;;;;;10.93;3.25;;;7.10;97.40;;;;;;5013383;28;20469;-68
2021/04/26 06:24:33;;;;;;;9.82;3.05;;;7.10;97.10;;;;;;5013897;28;20034;-68
2021/04/26 06:26:59;;;;;;;14.00;2.95;;;7.20;96.90;;;;;;5013073;28;20041;-68
2021/04/26 06:29:25;;;;;;;7.93;2.75;;;7.20;96.90;;;;;;5013857;28;20537;-69
2021/04/26 06:31:50;;;;;;;8.98;2.40;;;7.30;96.60;;;;;;5013640;28;20068;-68
2021/04/26 06:34:16;;;;;;;7.80;2.88;;;7.40;96.30;;;;;;4993861;28;20387;-68
2021/04/26 06:36:42;;;;;;;8.32;2.97;;;7.40;96.10;;;;;;5013582;28;20486;-68
2021/04/26 06:39:10;;;;;;;10.27;2.50;;;7.50;96.20;;;;;;5013371;28;20026;-68
2021/04/26 06:41:36;;;;;;;9.18;3.33;;;7.60;95.90;;;;;;4995665;28;20376;-68
2021/04/26 06:44:03;;;;;;;7.43;2.92;;;7.60;95.70;;;;;;5013507;28;20101;-69
2021/04/26 06:46:31;;;;;;;11.38;2.95;;;7.70;95.80;;;;;;5013495;28;20037;-69
2021/04/26 06:48:56;;;;;;;5.82;2.30;;;7.90;95.50;;;;;;5013198;28;20025;-68
2021/04/26 06:51:22;;;;;;;6.05;2.25;;;8.00;94.70;;;;;;5013114;28;20044;-69
2021/04/26 06:53:48;;;;;;;9.88;2.45;;;8.10;94.70;;;;;;5013218;28;20112;-68
2021/04/26 06:56:14;;;;;;;21.63;5.68;;;8.20;94.30;;;;;;5013104;28;20161;-69
2021/04/26 06:58:40;;;;;;;10.32;3.63;;;8.30;94.10;;;;;;5013079;28;20495;-70
2021/04/26 07:01:06;;;;;;;9.48;2.92;;;8.40;93.30;;;;;;5012801;28;20033;-70
2021/04/26 07:03:31;;;;;;;8.85;2.85;;;8.20;92.90;;;;;;5018256;28;20040;-69
2021/04/26 07:05:57;;;;;;;7.15;2.65;;;8.40;93.00;;;;;;5029859;28;20136;-69
2021/04/26 07:08:23;;;;;;;5.13;2.17;;;8.40;92.80;;;;;;5032717;28;20022;-70
2021/04/26 07:10:50;;;;;;;5.90;2.00;;;8.50;92.40;;;;;;5032716;28;20029;-70
2021/04/26 07:13:16;;;;;;;5.47;2.60;;;8.70;92.50;;;;;;5032582;28;20478;-70
2021/04/26 07:15:42;;;;;;;4.35;2.17;;;8.70;91.90;;;;;;5032705;28;20117;-70
2021/04/26 07:18:09;;;;;;;11.07;2.78;;;8.70;92.00;;;;;;5032161;28;20112;-69
2021/04/26 07:20:37;;;;;;;6.57;2.30;;;8.90;91.90;;;;;;5031102;28;20038;-70
2021/04/26 07:23:03;;;;;;;9.38;2.80;;;8.90;91.10;;;;;;5032228;28;20121;-70
2021/04/26 07:25:29;;;;;;;8.98;2.63;;;9.10;91.20;;;;;;5032657;28;20439;-70
2021/04/26 07:27:55;;;;;;;4.68;2.28;;;9.20;91.20;;;;;;5032285;28;20044;-69
2021/04/26 07:30:22;;;;;;;7.53;2.67;;;9.30;90.30;;;;;;5032566;28;20039;-70
2021/04/26 07:32:48;;;;;;;7.18;2.30;;;9.40;90.20;;;;;;5032125;28;20040;-70
2021/04/26 07:35:15;;;;;;;6.70;2.10;;;9.50;89.30;;;;;;5032178;28;20765;-70
2021/04/26 07:37:42;;;;;;;6.28;2.55;;;9.50;88.00;;;;;;5031541;28;20049;-69
2021/04/26 07:40:12;;;;;;;4.55;2.15;;;9.50;89.00;;;;;;5031118;28;20124;-70
2021/04/26 07:42:38;;;;;;;7.80;2.20;;;9.50;88.60;;;;;;5032282;28;20034;-69
2021/04/26 07:45:06;;;;;;;7.55;2.55;;;9.70;90.00;;;;;;5032087;28;20030;-71
2021/04/26 07:47:31;;;;;;;3.70;2.05;;;9.80;86.90;;;;;;5032352;28;20148;-70
2021/04/26 07:49:57;;;;;;;9.32;2.58;;;9.90;85.50;;;;;;5031090;28;20121;-69
2021/04/26 07:52:23;;;;;;;6.93;2.40;;;10.00;85.60;;;;;;5032090;28;20033;-70
2021/04/26 07:54:49;;;;;;;7.88;2.17;;;10.10;83.80;;;;;;5030945;28;20029;-69
2021/04/26 07:57:15;;;;;;;4.63;2.10;;;10.30;85.50;;;;;;5031939;28;20026;-69
2021/04/26 07:59:41;;;;;;;5.55;2.30;;;10.40;81.80;;;;;;5014653;28;20041;-69
2021/04/26 08:02:07;;;;;;;8.45;3.05;;;10.40;81.90;;;;;;5031827;28;20087;-69
2021/04/26 08:04:33;;;;;;;10.23;4.78;;;10.40;80.20;;;;;;5016575;28;20026;-69
2021/04/26 08:06:58;;;;;;;6.80;2.35;;;10.40;79.60;;;;;;5012382;28;20037;-69
2021/04/26 08:09:24;;;;;;;5.22;1.92;;;10.30;78.40;;;;;;5011834;28;20029;-70
2021/04/26 08:11:50;;;;;;;3.72;2.20;;;10.50;79.40;;;;;;5012252;28;20041;-70
2021/04/26 08:14:16;;;;;;;4.75;2.20;;;10.60;79.20;;;;;;5011979;28;20406;-70
2021/04/26 08:16:43;;;;;;;4.75;2.10;;;10.80;78.30;;;;;;5011996;28;20038;-70
2021/04/26 08:19:10;;;;;;;4.07;1.60;;;10.90;76.30;;;;;;5011560;28;20046;-70
2021/04/26 08:21:37;;;;;;;4.68;2.30;;;11.00;76.70;;;;;;4983964;28;20155;-69
2021/04/26 08:24:06;;;;;;;6.60;2.55;;;11.20;74.30;;;;;;4992243;28;20023;-69
2021/04/26 08:26:32;;;;;;;6.47;1.83;;;11.10;73.30;;;;;;4992346;28;20026;-69
2021/04/26 08:28:58;;;;;;;5.85;1.80;;;11.10;73.90;;;;;;4992194;28;20033;-70
2021/04/26 08:31:24;;;;;;;4.32;1.83;;;11.20;72.40;;;;;;4992330;28;20030;-70
2021/04/26 08:33:49;;;;;;;6.85;2.00;;;11.30;73.10;;;;;;4992132;28;20034;-69
2021/04/26 08:36:15;;;;;;;3.30;1.70;;;11.30;72.80;;;;;;4992371;28;20035;-69
2021/04/26 08:38:41;;;;;;;4.28;1.77;;;11.40;72.40;;;;;;4992506;28;20072;-69
2021/04/26 08:41:16;;;;;;;7.20;2.13;;;11.60;73.40;;;;;;4992009;28;20085;-69
2021/04/26 08:43:45;;;;;;;4.68;1.80;;;11.70;71.30;;;;;;4992479;28;20034;-69
2021/04/26 08:46:14;;;;;;;6.70;2.30;;;11.90;70.30;;;;;;4992289;28;20121;-70
2021/04/26 08:48:41;;;;;;;4.07;2.20;;;11.90;69.60;;;;;;4992367;28;20120;-70
2021/04/26 08:51:08;;;;;;;4.00;1.63;;;12.00;67.80;;;;;;4994142;28;20141;-70
2021/04/26 08:53:34;;;;;;;6.05;1.95;;;12.10;68.50;;;;;;4995909;28;20495;-70
2021/04/26 08:56:00;;;;;;;6.28;2.08;;;12.20;67.50;;;;;;4996054;28;20038;-70
2021/04/26 08:58:27;;;;;;;5.65;1.70;;;12.00;67.30;;;;;;4995690;28;20168;-69
2021/04/26 09:00:53;;;;;;;4.40;1.77;;;12.10;68.30;;;;;;4995969;28;20030;-70
2021/04/26 09:03:34;;;;;;;5.65;1.70;;;12.20;66.50;;;;;;4994310;28;20034;-69
2021/04/26 09:06:00;;;;;;;3.90;1.53;;;12.30;66.90;;;;;;4995848;28;20026;-68
2021/04/26 09:08:28;;;;;;;5.07;2.55;;;12.30;65.70;;;;;;4995586;28;20117;-69
2021/04/26 09:11:06;;;;;;;10.05;2.58;;;12.50;64.90;;;;;;4995639;28;20081;-69
2021/04/26 09:13:42;;;;;;;4.80;1.90;;;12.40;64.90;;;;;;4995631;28;20034;-68
2021/04/26 09:16:20;;;;;;;5.47;1.85;;;12.60;64.00;;;;;;4995277;28;20030;-67
2021/04/26 09:19:10;;;;;;;5.32;1.50;;;12.80;64.20;;;;;;4995557;28;20487;-68
2021/04/26 09:21:44;;;;;;;5.22;1.70;;;12.90;63.50;;;;;;5005283;28;20411;-69
2021/04/26 09:24:28;;;;;;;5.45;1.42;;;12.90;62.50;;;;;;5015093;28;20076;-68
2021/04/26 09:27:12;;;;;;;11.25;2.50;;;12.90;63.30;;;;;;5014991;28;20033;-67
2021/04/26 09:29:41;;;;;;;6.82;1.40;;;12.90;61.90;;;;;;5014993;28;20446;-67
2021/04/26 09:32:22;;;;;;;7.10;2.40;;;13.10;61.90;;;;;;5014656;28;20034;-66
2021/04/26 09:34:53;;;;;;;8.73;1.70;;;13.50;62.20;;;;;;5014869;28;20032;-68
2021/04/26 09:37:23;;;;;;;3.78;1.65;;;13.60;62.00;;;;;;5014792;28;20396;-69
2021/04/26 09:40:10;;;;;;;5.63;1.80;;;13.80;61.80;;;;;;5014358;28;20038;-67
2021/04/26 09:42:55;;;;;;;5.53;1.58;;;13.90;60.30;;;;;;5014870;28;20038;-66
2021/04/26 09:45:39;;;;;;;6.13;1.95;;;14.00;60.10;;;;;;5014452;28;20046;-67
2021/04/26 09:48:21;;;;;;;3.90;1.60;;;13.90;59.30;;;;;;5014731;28;20537;-68
2021/04/26 09:50:58;;;;;;;;;;;13.90;59.10;;;;;;5013854;28;20033;-67
2021/04/26 09:53:33;;;;;;;4.57;1.50;;;14.10;58.60;;;;;;5014396;28;19959;-69
2021/04/26 09:56:11;;;;;;;6.30;2.45;;;14.30;57.60;;;;;;5014498;28;20037;-68
2021/04/26 09:58:44;;;;;;;3.55;1.60;;;14.30;57.60;;;;;;4990242;28;20030;-70
2021/04/26 10:01:10;;;;;;;4.55;1.88;;;14.40;57.90;;;;;;4993441;28;20060;-69
2021/04/26 10:03:36;;;;;;;5.72;1.63;;;14.20;58.20;;;;;;4993961;28;20030;-69
2021/04/26 10:06:04;;;;;;;12.40;1.98;;;14.50;59.50;;;;;;5013993;28;20125;-69
2021/04/26 10:08:30;;;;;;;9.02;1.95;;;14.50;56.90;;;;;;5014142;28;20449;-69
2021/04/26 10:10:57;;;;;;;3.65;1.90;;;14.70;57.10;;;;;;5014149;28;20026;-70
2021/04/26 10:13:24;;;;;;;4.35;1.60;;;14.70;56.10;;;;;;5028951;28;20038;-68
2021/04/26 10:15:57;;;;;;;4.13;2.22;;;15.00;56.90;;;;;;5014046;28;20113;-69
2021/04/26 10:18:37;;;;;;;4.18;1.63;;;15.10;56.30;;;;;;5028845;28;20082;-69
2021/04/26 10:21:25;;;;;;;4.93;2.00;;;14.90;54.90;;;;;;5013775;28;20058;-68
2021/04/26 10:23:54;;;;;;;3.83;1.35;;;15.10;56.50;;;;;;5013697;28;20033;-69
2021/04/26 10:26:47;;;;;;;3.80;1.58;;;15.40;54.90;;;;;;5013489;28;20084;-69
2021/04/26 10:29:16;;;;;;;4.93;1.98;;;15.50;54.90;;;;;;5012187;28;20034;-69
2021/04/26 10:31:59;;;;;;;5.13;1.60;;;15.40;54.80;;;;;;5013560;28;20049;-69
2021/04/26 10:34:30;;;;;;;6.38;1.67;;;15.70;54.50;;;;;;5013619;28;20046;-69
2021/04/26 10:36:59;;;;;;;;;;;16.00;53.60;;;;;;5028950;28;20026;-68
2021/04/26 10:39:27;;;;;;;7.00;2.08;;;16.20;54.70;;;;;;5016043;28;19925;-69
2021/04/26 10:42:08;;;;;;;4.40;1.58;;;16.40;52.60;;;;;;5033345;28;20071;-69
2021/04/26 10:44:40;;;;;;;5.80;2.10;;;16.40;51.60;;;;;;5033285;28;20033;-68
2021/04/26 10:47:30;;;;;;;4.43;2.13;;;16.50;51.80;;;;;;5033205;28;20044;-68
2021/04/26 10:50:01;;;;;;;6.53;1.65;;;16.40;51.70;;;;;;5033023;28;20038;-68
2021/04/26 10:52:27;;;;;;;4.65;1.60;;;16.40;50.70;;;;;;5032841;28;20037;-68
2021/04/26 10:54:58;;;;;;;5.15;2.03;;;16.50;50.90;;;;;;5032793;28;20037;-68
2021/04/26 10:57:41;;;;;;;3.25;1.30;;;15.50;52.50;;;;;;5032591;28;20102;-68
2021/04/26 11:00:31;;;;;;;4.28;1.55;;;16.10;52.90;;;;;;5046956;28;20120;-68
2021/04/26 11:03:11;;;;;;;5.65;1.70;;;16.50;51.70;;;;;;5032981;28;20588;-48
2021/04/26 11:05:43;;;;;;;5.82;2.30;;;16.60;49.30;;;;;;5032595;28;20037;-69
2021/04/26 11:11:09;;;;;;;5.00;2.03;;;16.80;49.90;;;;;;5025240;28;20037;-68
2021/04/26 11:13:35;;;;;;;5.50;1.92;;;16.90;48.20;;;;;;5032597;28;20542;-70
2021/04/26 11:16:09;;;;;;;3.95;1.40;;;17.30;48.40;;;;;;5032795;28;20041;-68
2021/04/26 11:18:41;;;;;;;5.03;2.75;;;17.50;48.20;;;;;;5032688;28;20099;-69
2021/04/26 11:21:10;;;;;;;4.50;2.13;;;17.50;48.50;;;;;;5047215;28;20110;-69
2021/04/26 11:23:56;;;;;;;5.07;1.83;;;16.60;48.70;;;;;;5032078;28;20029;-69
2021/04/26 11:26:24;;;;;;;5.43;1.88;;;16.40;49.80;;;;;;5014694;28;20037;-68
2021/04/26 11:29:04;;;;;;;6.38;1.70;;;17.20;49.00;;;;;;5032682;28;20025;-69
2021/04/26 11:31:56;;;;;;;7.25;2.30;;;16.70;48.80;;;;;;5032385;28;20032;-69
2021/04/26 11:34:22;;;;;;;3.22;1.60;;;16.90;48.20;;;;;;5029910;28;20511;-68
2021/04/26 11:37:00;;;;;;;3.25;1.67;;;17.50;47.20;;;;;;5032474;28;20053;-68
2021/04/26 11:39:36;;;;;;;5.50;1.50;;;17.70;46.80;;;;;;5032450;28;20087;-69
2021/04/26 11:42:04;;;;;;;4.38;1.60;;;17.90;46.90;;;;;;5031982;28;20481;-69
2021/04/26 11:44:35;;;;;;;5.38;1.52;;;17.60;47.50;;;;;;5032237;28;20033;-69
2021/04/26 11:47:10;;;;;;;5.70;2.05;;;17.30;47.10;;;;;;5047594;28;20512;-68
2021/04/26 11:49:44;;;;;;;4.22;1.63;;;17.10;47.40;;;;;;5029822;28;20109;-69
2021/04/26 11:52:16;;;;;;;5.00;1.55;;;16.90;47.50;;;;;;5032166;28;20042;-69
2021/04/26 11:54:44;;;;;;;4.32;1.60;;;16.80;46.90;;;;;;5031956;28;20033;-69
2021/04/26 11:57:19;;;;;;;5.25;1.25;;;17.40;47.10;;;;;;5032030;28;20560;-69
2021/04/26 11:59:53;;;;;;;7.40;2.60;;;18.10;46.50;;;;;;5032087;28;20030;-69
2021/04/26 12:02:26;;;;;;;5.93;2.85;;;18.10;45.90;;;;;;5032120;28;20037;-69
2021/04/26 12:04:52;;;;;;;4.22;1.85;;;18.50;46.10;;;;;;5032283;28;20025;-68
2021/04/26 12:07:18;;;;;;;6.53;1.80;;;19.10;44.30;;;;;;5047361;28;20482;-69
2021/04/26 12:09:51;;;;;;;6.80;1.90;;;18.90;43.90;;;;;;5032206;28;20120;-69
2021/04/26 12:12:24;;;;;;;4.47;2.20;;;19.00;43.40;;;;;;5046482;28;20037;-70
2021/04/26 12:15:14;;;;;;;6.93;2.13;;;19.30;43.50;;;;;;5047492;28;20079;-68
2021/04/26 12:17:43;;;;;;;4.47;1.65;;;18.80;45.00;;;;;;5031237;28;20046;-68
2021/04/26 12:20:32;;;;;;;5.15;2.05;;;19.10;44.90;;;;;;5032136;28;20635;-68
2021/04/26 12:23:04;;;;;;;5.57;1.50;;;19.20;42.90;;;;;;5031871;28;20385;-69
2021/04/26 12:25:42;;;;;;;2.95;1.35;;;18.70;44.50;;;;;;5034601;28;20036;-70
2021/04/26 12:28:10;;;;;;;5.97;1.50;;;19.20;44.10;;;;;;5035670;28;20025;-69
2021/04/26 12:30:39;;;;;;;6.28;2.08;;;19.40;43.60;;;;;;5035464;28;20117;-69
2021/04/26 12:33:31;;;;;;;5.15;2.13;;;19.80;42.70;;;;;;5035671;28;20112;-68
2021/04/26 12:36:01;;;;;;;5.00;1.90;;;19.80;42.50;;;;;;5050965;28;20034;-68
2021/04/26 12:38:33;;;;;;;4.05;1.60;;;19.80;41.70;;;;;;5035327;28;20519;-69
2021/04/26 12:40:59;;;;;;;4.13;1.80;;;19.20;42.20;;;;;;5035581;28;20068;-69
2021/04/26 12:43:37;;;;;;;3.33;1.38;;;19.30;42.50;;;;;;5035404;28;20069;-69
2021/04/26 12:46:13;;;;;;;4.70;1.38;;;19.90;42.50;;;;;;5035351;28;20040;-69
2021/04/26 12:48:41;;;;;;;9.27;1.70;;;20.70;41.60;;;;;;5035225;28;20037;-68
2021/04/26 12:51:08;;;;;;;3.95;1.48;;;21.00;41.00;;;;;;5035112;28;20036;-69
2021/04/26 12:53:39;;;;;;;3.55;1.60;;;20.60;40.50;;;;;;5035300;28;20033;-69
2021/04/26 12:56:10;;;;;;;3.00;1.27;;;20.80;40.30;;;;;;5035358;28;20026;-68
2021/04/26 12:58:49;;;;;;;3.83;1.67;;;21.30;39.90;;;;;;5034955;28;20104;-69
2021/04/26 13:01:17;;;;;;;5.82;1.55;;;21.60;39.00;;;;;;5035030;28;20069;-49
2021/04/26 13:03:49;;;;;;;4.20;1.40;;;21.90;41.10;;;;;;5034891;28;20120;-68
2021/04/26 13:06:38;;;;;;;2.83;1.48;;;22.00;38.50;;;;;;5034984;28;20468;-69
2021/04/26 13:09:08;;;;;;;6.88;1.60;;;22.30;37.60;;;;;;5017881;28;20065;-68
2021/04/26 13:11:45;;;;;;;5.72;1.33;;;21.80;38.00;;;;;;5034791;28;20107;-68